sensor_id;sensor_type;location;lat;lon;timestamp;pressure;altitude;pressure_sealevel;temperature;humidity
76847;BME280;65813;49.546;8.644;2023-03-26T04:15:32;99770.81;;;8.28;73.74
76847;BME280;65813;49.546;8.644;2023-03-26T04:19:34;99760.03;;;8.31;74.21
76847;BME280;65813;49.546;8.644;2023-03-26T04:23:36;99750.22;;;8.31;73.65
76847;BME280;65813;49.546;8.644;2023-03-26T04:27:38;99748.78;;;8.51;73.00
76847;BME280;65813;49.546;8.644;2023-03-26T04:31:40;99723.91;;;8.52;72.37
76847;BME280;65813;49.546;8.644;2023-03-26T04:35:42;99719.53;;;8.40;72.44
76847;BME280;65813;49.546;8.644;2023-03-26T04:39:43;99725.50;;;8.54;72.22
76847;BME280;65813;49.546;8.644;2023-03-26T04:43:44;99715.31;;;8.48;72.83
76847;BME280;65813;49.546;8.644;2023-03-26T04:47:49;99711.47;;;8.52;72.57
76847;BME280;65813;49.546;8.644;2023-03-26T04:51:52;99696.28;;;8.54;72.66
76847;BME280;65813;49.546;8.644;2023-03-26T04:56:00;99686.97;;;8.49;73.14
76847;BME280;65813;49.546;8.644;2023-03-26T05:00:05;99683.09;;;8.42;73.53
76847;BME280;65813;49.546;8.644;2023-03-26T05:04:14;99681.81;;;8.47;73.24
76847;BME280;65813;49.546;8.644;2023-03-26T05:08:14;99676.25;;;8.50;73.50
76847;BME280;65813;49.546;8.644;2023-03-26T05:12:15;99665.03;;;8.47;74.41
76847;BME280;65813;49.546;8.644;2023-03-26T05:16:15;99653.06;;;8.52;73.91
76847;BME280;65813;49.546;8.644;2023-03-26T05:20:22;99646.47;;;8.58;74.19
76847;BME280;65813;49.546;8.644;2023-03-26T05:24:22;99641.84;;;8.49;74.17
76847;BME280;65813;49.546;8.644;2023-03-26T05:28:23;99631.25;;;8.49;73.85
76847;BME280;65813;49.546;8.644;2023-03-26T05:32:25;99625.34;;;8.56;74.62
76847;BME280;65813;49.546;8.644;2023-03-26T05:36:25;99627.03;;;8.46;75.51
76847;BME280;65813;49.546;8.644;2023-03-26T05:40:27;99614.88;;;8.55;75.23
76847;BME280;65813;49.546;8.644;2023-03-26T05:44:27;99612.66;;;8.49;76.27
76847;BME280;65813;49.546;8.644;2023-03-26T05:48:28;99615.31;;;8.49;76.57
76847;BME280;65813;49.546;8.644;2023-03-26T05:52:28;99591.94;;;8.54;76.45
76847;BME280;65813;49.546;8.644;2023-03-26T05:56:29;99591.69;;;8.57;76.27
76847;BME280;65813;49.546;8.644;2023-03-26T06:00:29;99573.94;;;8.46;78.13
76847;BME280;65813;49.546;8.644;2023-03-26T06:04:29;99592.16;;;8.51;78.38
76847;BME280;65813;49.546;8.644;2023-03-26T06:08:30;99570.91;;;8.40;79.52
76847;BME280;65813;49.546;8.644;2023-03-26T06:12:31;99564.78;;;8.50;79.11
76847;BME280;65813;49.546;8.644;2023-03-26T06:16:32;99562.81;;;8.41;78.89
76847;BME280;65813;49.546;8.644;2023-03-26T06:20:32;99549.44;;;8.43;79.98
76847;BME280;65813;49.546;8.644;2023-03-26T06:24:32;99547.38;;;8.35;80.30
76847;BME280;65813;49.546;8.644;2023-03-26T06:28:33;99534.72;;;8.39;80.67
76847;BME280;65813;49.546;8.644;2023-03-26T06:32:35;99514.00;;;8.44;79.74
76847;BME280;65813;49.546;8.644;2023-03-26T06:36:36;99515.31;;;8.49;80.33
76847;BME280;65813;49.546;8.644;2023-03-26T06:40:36;99513.75;;;8.47;82.25
76847;BME280;65813;49.546;8.644;2023-03-26T06:44:36;99514.44;;;8.38;81.78
76847;BME280;65813;49.546;8.644;2023-03-26T06:48:37;99506.03;;;8.44;81.39
76847;BME280;65813;49.546;8.644;2023-03-26T06:52:38;99493.13;;;8.39;80.98
76847;BME280;65813;49.546;8.644;2023-03-26T06:56:38;99495.53;;;8.53;80.64
76847;BME280;65813;49.546;8.644;2023-03-26T07:00:39;99503.38;;;8.55;82.05
76847;BME280;65813;49.546;8.644;2023-03-26T07:04:41;99489.72;;;8.48;83.44
76847;BME280;65813;49.546;8.644;2023-03-26T07:08:41;99486.59;;;8.54;80.53
76847;BME280;65813;49.546;8.644;2023-03-26T07:12:42;99477.31;;;8.49;80.29
76847;BME280;65813;49.546;8.644;2023-03-26T07:16:42;99465.25;;;8.45;82.34
76847;BME280;65813;49.546;8.644;2023-03-26T07:20:44;99463.31;;;8.36;83.87
76847;BME280;65813;49.546;8.644;2023-03-26T07:24:45;99458.72;;;8.38;81.49
76847;BME280;65813;49.546;8.644;2023-03-26T07:28:57;99449.22;;;8.35;83.64
76847;BME280;65813;49.546;8.644;2023-03-26T07:33:05;99444.50;;;8.39;81.45
76847;BME280;65813;49.546;8.644;2023-03-26T07:37:22;99445.00;;;8.33;82.31
76847;BME280;65813;49.546;8.644;2023-03-26T07:41:34;99446.69;;;8.34;81.20
76847;BME280;65813;49.546;8.644;2023-03-26T07:45:40;99438.47;;;8.26;83.36
76847;BME280;65813;49.546;8.644;2023-03-26T07:49:41;99430.28;;;8.29;84.00
76847;BME280;65813;49.546;8.644;2023-03-26T07:53:42;99433.03;;;8.27;85.51
76847;BME280;65813;49.546;8.644;2023-03-26T07:57:48;99433.69;;;8.31;84.91
76847;BME280;65813;49.546;8.644;2023-03-26T08:06:11;99428.13;;;8.34;84.68
76847;BME280;65813;49.546;8.644;2023-03-26T08:10:25;99433.63;;;8.20;86.35
76847;BME280;65813;49.546;8.644;2023-03-26T08:14:41;99447.91;;;8.30;85.81
76847;BME280;65813;49.546;8.644;2023-03-26T08:18:58;99449.56;;;8.20;85.23
76847;BME280;65813;49.546;8.644;2023-03-26T08:23:26;99463.75;;;8.07;85.99
76847;BME280;65813;49.546;8.644;2023-03-26T08:27:39;99462.56;;;7.89;86.81
76847;BME280;65813;49.546;8.644;2023-03-26T08:31:42;99476.44;;;7.93;87.31
76847;BME280;65813;49.546;8.644;2023-03-26T08:35:44;99455.06;;;7.83;85.69
76847;BME280;65813;49.546;8.644;2023-03-26T08:39:45;99458.66;;;7.71;86.11
76847;BME280;65813;49.546;8.644;2023-03-26T08:44:15;99457.47;;;7.75;85.80
76847;BME280;65813;49.546;8.644;2023-03-26T08:52:46;99424.09;;;7.95;85.08
76847;BME280;65813;49.546;8.644;2023-03-26T09:05:30;99428.59;;;8.17;84.28
76847;BME280;65813;49.546;8.644;2023-03-26T09:22:40;99401.22;;;8.27;81.64
76847;BME280;65813;49.546;8.644;2023-03-26T09:26:54;99390.38;;;8.30;81.16
76847;BME280;65813;49.546;8.644;2023-03-26T10:10:13;99335.41;;;9.37;79.28
76847;BME280;65813;49.546;8.644;2023-03-26T10:14:28;99336.56;;;9.75;77.75
76847;BME280;65813;49.546;8.644;2023-03-26T10:27:48;99309.63;;;11.15;71.96
76847;BME280;65813;49.546;8.644;2023-03-26T10:32:34;99312.97;;;11.36;70.51
76847;BME280;65813;49.546;8.644;2023-03-26T10:36:34;99303.44;;;11.24;71.60
76847;BME280;65813;49.546;8.644;2023-03-26T10:40:43;99322.03;;;11.72;71.45
76847;BME280;65813;49.546;8.644;2023-03-26T10:49:25;99304.28;;;11.15;72.26
76847;BME280;65813;49.546;8.644;2023-03-26T11:02:19;99319.22;;;9.80;79.97
76847;BME280;65813;49.546;8.644;2023-03-26T11:06:35;99313.22;;;9.78;80.81
76847;BME280;65813;49.546;8.644;2023-03-26T11:10:55;99320.72;;;9.73;80.37
76847;BME280;65813;49.546;8.644;2023-03-26T11:23:34;99306.69;;;10.80;79.60
76847;BME280;65813;49.546;8.644;2023-03-26T11:27:56;99293.31;;;11.28;77.73
76847;BME280;65813;49.546;8.644;2023-03-26T11:32:10;99302.06;;;11.20;76.06
76847;BME280;65813;49.546;8.644;2023-03-26T11:36:16;99296.91;;;10.99;75.59
76847;BME280;65813;49.546;8.644;2023-03-26T11:40:23;99293.13;;;11.48;73.66
76847;BME280;65813;49.546;8.644;2023-03-26T11:44:32;99286.13;;;11.38;72.77
76847;BME280;65813;49.546;8.644;2023-03-26T11:48:43;99282.53;;;11.29;73.60
76847;BME280;65813;49.546;8.644;2023-03-26T11:52:45;99283.75;;;11.35;73.81
76847;BME280;65813;49.546;8.644;2023-03-26T11:56:56;99275.88;;;11.43;72.38
76847;BME280;65813;49.546;8.644;2023-03-26T12:00:57;99274.06;;;11.43;72.09
76847;BME280;65813;49.546;8.644;2023-03-26T12:09:17;99306.25;;;11.03;72.13
76847;BME280;65813;49.546;8.644;2023-03-26T12:13:37;99302.09;;;10.91;73.78
76847;BME280;65813;49.546;8.644;2023-03-26T12:17:38;99307.44;;;10.72;74.35
76847;BME280;65813;49.546;8.644;2023-03-26T12:22:02;99299.81;;;10.96;75.49
76847;BME280;65813;49.546;8.644;2023-03-26T12:26:10;99295.63;;;11.13;73.94
76847;BME280;65813;49.546;8.644;2023-03-26T12:34:37;99295.44;;;12.07;68.48
76847;BME280;65813;49.546;8.644;2023-03-26T12:38:38;99291.03;;;12.61;66.81
76847;BME280;65813;49.546;8.644;2023-03-26T12:42:50;99283.75;;;12.36;66.86
76847;BME280;65813;49.546;8.644;2023-03-26T12:47:06;99287.22;;;12.19;65.65
76847;BME280;65813;49.546;8.644;2023-03-26T12:59:52;99273.78;;;11.83;63.08
76847;BME280;65813;49.546;8.644;2023-03-26T13:04:32;99274.88;;;11.90;63.59
76847;BME280;65813;49.546;8.644;2023-03-26T13:18:04;99254.38;;;12.36;61.37
76847;BME280;65813;49.546;8.644;2023-03-26T13:31:00;99246.34;;;12.36;61.43
76847;BME280;65813;49.546;8.644;2023-03-26T13:35:31;99242.38;;;12.75;56.51
76847;BME280;65813;49.546;8.644;2023-03-26T13:49:08;99211.78;;;12.52;55.57
76847;BME280;65813;49.546;8.644;2023-03-26T13:53:20;99224.84;;;12.37;56.28
76847;BME280;65813;49.546;8.644;2023-03-26T13:57:36;99222.41;;;12.26;55.55
76847;BME280;65813;49.546;8.644;2023-03-26T14:01:43;99213.44;;;12.18;59.21
76847;BME280;65813;49.546;8.644;2023-03-26T14:05:49;99201.25;;;12.15;55.07
76847;BME280;65813;49.546;8.644;2023-03-26T14:09:52;99209.41;;;12.13;58.87
76847;BME280;65813;49.546;8.644;2023-03-26T14:14:00;99192.72;;;12.11;54.40
76847;BME280;65813;49.546;8.644;2023-03-26T14:18:19;99195.06;;;12.14;55.09
76847;BME280;65813;49.546;8.644;2023-03-26T14:22:43;99200.88;;;12.10;58.90
76847;BME280;65813;49.546;8.644;2023-03-26T14:27:13;99187.69;;;12.08;55.87
76847;BME280;65813;49.546;8.644;2023-03-26T14:35:46;99171.66;;;12.08;54.99
76847;BME280;65813;49.546;8.644;2023-03-26T14:48:53;99175.84;;;12.11;54.93
76847;BME280;65813;49.546;8.644;2023-03-26T14:52:58;99160.44;;;12.05;56.40
76847;BME280;65813;49.546;8.644;2023-03-26T14:57:07;99187.53;;;11.92;54.38
76847;BME280;65813;49.546;8.644;2023-03-26T15:01:28;99182.69;;;11.78;58.28
76847;BME280;65813;49.546;8.644;2023-03-26T15:05:57;99191.78;;;11.48;56.47
76847;BME280;65813;49.546;8.644;2023-03-26T15:10:10;99193.91;;;11.45;59.59
76847;BME280;65813;49.546;8.644;2023-03-26T15:36:56;99235.94;;;10.39;61.57
76847;BME280;65813;49.546;8.644;2023-03-26T15:41:09;99236.19;;;10.17;62.48
76847;BME280;65813;49.546;8.644;2023-03-26T15:45:49;99246.97;;;10.25;62.82
76847;BME280;65813;49.546;8.644;2023-03-26T15:54:20;99238.50;;;10.00;63.74
76847;BME280;65813;49.546;8.644;2023-03-26T15:58:27;99254.91;;;10.05;64.37
76847;BME280;65813;49.546;8.644;2023-03-26T16:02:58;99264.00;;;10.03;65.07
76847;BME280;65813;49.546;8.644;2023-03-26T16:07:25;99261.03;;;9.96;66.11
76847;BME280;65813;49.546;8.644;2023-03-26T16:20:19;99288.56;;;9.76;66.45
76847;BME280;65813;49.546;8.644;2023-03-26T16:24:28;99294.34;;;9.91;67.98
76847;BME280;65813;49.546;8.644;2023-03-26T16:28:32;99311.00;;;9.53;70.61
76847;BME280;65813;49.546;8.644;2023-03-26T16:32:35;99319.22;;;9.50;70.31
76847;BME280;65813;49.546;8.644;2023-03-26T16:36:44;99308.34;;;9.32;71.60
76847;BME280;65813;49.546;8.644;2023-03-26T16:41:04;99316.00;;;9.26;71.34
76847;BME280;65813;49.546;8.644;2023-03-26T16:45:31;99316.88;;;9.05;72.26
76847;BME280;65813;49.546;8.644;2023-03-26T16:54:13;99336.22;;;9.17;73.09
76847;BME280;65813;49.546;8.644;2023-03-26T16:58:32;99323.28;;;9.03;72.76
76847;BME280;65813;49.546;8.644;2023-03-26T17:02:56;99330.66;;;8.99;71.60
76847;BME280;65813;49.546;8.644;2023-03-26T17:19:53;99330.88;;;8.76;71.80
76847;BME280;65813;49.546;8.644;2023-03-26T17:32:54;99346.63;;;8.68;72.95
76847;BME280;65813;49.546;8.644;2023-03-26T17:36:56;99343.63;;;8.61;72.09
76847;BME280;65813;49.546;8.644;2023-03-26T17:40:58;99351.00;;;8.89;71.99
76847;BME280;65813;49.546;8.644;2023-03-26T17:45:00;99330.38;;;8.82;72.04
76847;BME280;65813;49.546;8.644;2023-03-26T17:49:17;99336.03;;;8.56;72.78
76847;BME280;65813;49.546;8.644;2023-03-26T18:05:48;99338.56;;;8.58;73.95
76847;BME280;65813;49.546;8.644;2023-03-26T18:10:14;99342.78;;;8.60;74.30
76847;BME280;65813;49.546;8.644;2023-03-26T18:18:48;99330.84;;;8.55;75.13
76847;BME280;65813;49.546;8.644;2023-03-26T18:22:50;99340.50;;;8.45;75.66
76847;BME280;65813;49.546;8.644;2023-03-26T18:26:54;99347.16;;;8.50;75.90
76847;BME280;65813;49.546;8.644;2023-03-26T18:31:07;99352.13;;;8.33;76.78
76847;BME280;65813;49.546;8.644;2023-03-26T18:35:16;99358.66;;;8.29;77.28
76847;BME280;65813;49.546;8.644;2023-03-26T18:39:19;99363.94;;;8.18;78.54
76847;BME280;65813;49.546;8.644;2023-03-26T18:43:20;99353.56;;;8.26;78.31
76847;BME280;65813;49.546;8.644;2023-03-26T18:47:21;99354.53;;;8.36;77.88
76847;BME280;65813;49.546;8.644;2023-03-26T18:51:24;99348.75;;;8.20;78.10
76847;BME280;65813;49.546;8.644;2023-03-26T18:55:27;99352.13;;;8.33;78.08
76847;BME280;65813;49.546;8.644;2023-03-26T18:59:29;99341.28;;;8.36;78.01
76847;BME280;65813;49.546;8.644;2023-03-26T19:03:34;99336.19;;;8.22;78.55
76847;BME280;65813;49.546;8.644;2023-03-26T19:07:35;99325.41;;;8.02;79.23
76847;BME280;65813;49.546;8.644;2023-03-26T19:11:37;99335.94;;;8.25;78.69
76847;BME280;65813;49.546;8.644;2023-03-26T19:15:39;99327.53;;;8.20;79.45
76847;BME280;65813;49.546;8.644;2023-03-26T19:19:39;99329.44;;;8.18;78.94
76847;BME280;65813;49.546;8.644;2023-03-26T19:23:40;99328.25;;;8.22;79.37
76847;BME280;65813;49.546;8.644;2023-03-26T19:27:41;99321.72;;;8.26;79.73
76847;BME280;65813;49.546;8.644;2023-03-26T19:31:41;99314.03;;;8.23;79.89
76847;BME280;65813;49.546;8.644;2023-03-26T19:35:42;99319.44;;;8.21;80.28
76847;BME280;65813;49.546;8.644;2023-03-26T19:39:45;99323.78;;;8.11;81.57
76847;BME280;65813;49.546;8.644;2023-03-26T19:43:51;99326.44;;;8.11;82.28
76847;BME280;65813;49.546;8.644;2023-03-26T19:47:52;99333.09;;;7.94;82.45
76847;BME280;65813;49.546;8.644;2023-03-26T19:52:11;99335.75;;;7.83;83.25
76847;BME280;65813;49.546;8.644;2023-03-26T19:56:15;99336.00;;;8.02;83.46
76847;BME280;65813;49.546;8.644;2023-03-26T20:00:17;99339.34;;;8.04;82.61
76847;BME280;65813;49.546;8.644;2023-03-26T20:04:18;99335.50;;;7.97;83.01
76847;BME280;65813;49.546;8.644;2023-03-26T20:08:18;99348.75;;;8.20;80.83
76847;BME280;65813;49.546;8.644;2023-03-26T20:12:19;99344.91;;;8.24;81.07
76847;BME280;65813;49.546;8.644;2023-03-26T20:16:29;99340.44;;;8.13;81.56
76847;BME280;65813;49.546;8.644;2023-03-26T20:20:29;99341.31;;;8.02;82.28
76847;BME280;65813;49.546;8.644;2023-03-26T20:24:32;99348.78;;;7.97;84.09
76847;BME280;65813;49.546;8.644;2023-03-26T20:28:33;99355.53;;;8.01;83.96
76847;BME280;65813;49.546;8.644;2023-03-26T20:32:33;99357.31;;;8.12;82.33
76847;BME280;65813;49.546;8.644;2023-03-26T20:36:34;99361.53;;;8.14;81.02
76847;BME280;65813;49.546;8.644;2023-03-26T20:40:34;99373.34;;;8.10;80.96
76847;BME280;65813;49.546;8.644;2023-03-26T20:44:35;99357.91;;;8.27;80.35
76847;BME280;65813;49.546;8.644;2023-03-26T20:48:35;99373.13;;;8.02;82.59
76847;BME280;65813;49.546;8.644;2023-03-26T20:52:35;99368.88;;;8.22;81.85
76847;BME280;65813;49.546;8.644;2023-03-26T20:56:36;99366.34;;;8.21;81.64
76847;BME280;65813;49.546;8.644;2023-03-26T21:00:36;99376.00;;;8.10;81.54
76847;BME280;65813;49.546;8.644;2023-03-26T21:04:37;99371.44;;;8.12;81.95
76847;BME280;65813;49.546;8.644;2023-03-26T21:08:37;99382.38;;;7.97;83.22
76847;BME280;65813;49.546;8.644;2023-03-26T21:12:43;99382.25;;;8.21;80.62
